sensor_id;sensor_type;location;lat;lon;timestamp;P1;durP1;ratioP1;P2;durP2;ratioP2
5569;SDS011;2808;51.240;6.794;2023-04-01T00:00:34;5.23;;;1.30;;
5569;SDS011;2808;51.240;6.794;2023-04-01T00:03:03;3.40;;;0.90;;
5569;SDS011;2808;51.240;6.794;2023-04-01T00:05:30;4.20;;;1.67;;
5569;SDS011;2808;51.240;6.794;2023-04-01T00:07:58;7.17;;;1.30;;
5569;SDS011;2808;51.240;6.794;2023-04-01T00:10:25;3.23;;;1.00;;
5569;SDS011;2808;51.240;6.794;2023-04-01T00:12:53;2.87;;;1.07;;
5569;SDS011;2808;51.240;6.794;2023-04-01T00:15:20;4.00;;;1.20;;
5569;SDS011;2808;51.240;6.794;2023-04-01T00:17:48;2.53;;;0.90;;
5569;SDS011;2808;51.240;6.794;2023-04-01T00:20:17;2.40;;;0.90;;
5569;SDS011;2808;51.240;6.794;2023-04-01T00:22:44;5.63;;;1.23;;
5569;SDS011;2808;51.240;6.794;2023-04-01T00:25:12;9.53;;;1.27;;
5569;SDS011;2808;51.240;6.794;2023-04-01T00:27:40;2.43;;;0.80;;
5569;SDS011;2808;51.240;6.794;2023-04-01T00:30:08;5.70;;;1.10;;
5569;SDS011;2808;51.240;6.794;2023-04-01T00:32:36;2.40;;;1.00;;
5569;SDS011;2808;51.240;6.794;2023-04-01T00:35:03;5.50;;;1.00;;
5569;SDS011;2808;51.240;6.794;2023-04-01T00:37:34;5.70;;;1.00;;
5569;SDS011;2808;51.240;6.794;2023-04-01T00:40:03;4.37;;;1.17;;
5569;SDS011;2808;51.240;6.794;2023-04-01T00:42:31;4.00;;;1.00;;
5569;SDS011;2808;51.240;6.794;2023-04-01T00:45:21;3.97;;;1.00;;
5569;SDS011;2808;51.240;6.794;2023-04-01T00:47:52;3.20;;;1.43;;
5569;SDS011;2808;51.240;6.794;2023-04-01T00:50:20;2.57;;;0.87;;
5569;SDS011;2808;51.240;6.794;2023-04-01T00:52:51;4.23;;;1.00;;
5569;SDS011;2808;51.240;6.794;2023-04-01T00:55:19;6.13;;;0.97;;
5569;SDS011;2808;51.240;6.794;2023-04-01T00:57:49;5.80;;;1.10;;
5569;SDS011;2808;51.240;6.794;2023-04-01T01:00:18;2.77;;;0.83;;
5569;SDS011;2808;51.240;6.794;2023-04-01T01:02:46;2.30;;;0.90;;
5569;SDS011;2808;51.240;6.794;2023-04-01T01:05:16;2.57;;;0.80;;
5569;SDS011;2808;51.240;6.794;2023-04-01T01:07:52;6.37;;;1.93;;
5569;SDS011;2808;51.240;6.794;2023-04-01T01:10:29;3.53;;;0.90;;
5569;SDS011;2808;51.240;6.794;2023-04-01T01:13:01;4.80;;;1.37;;
5569;SDS011;2808;51.240;6.794;2023-04-01T01:15:37;8.70;;;1.10;;
5569;SDS011;2808;51.240;6.794;2023-04-01T01:18:12;3.37;;;0.90;;
5569;SDS011;2808;51.240;6.794;2023-04-01T01:26:52;2.53;;;0.90;;
5569;SDS011;2808;51.240;6.794;2023-04-01T01:29:39;3.00;;;0.93;;
5569;SDS011;2808;51.240;6.794;2023-04-01T01:32:30;2.83;;;0.80;;
5569;SDS011;2808;51.240;6.794;2023-04-01T01:35:15;3.10;;;1.00;;
5569;SDS011;2808;51.240;6.794;2023-04-01T01:37:47;5.83;;;1.73;;
5569;SDS011;2808;51.240;6.794;2023-04-01T01:40:20;3.53;;;0.80;;
5569;SDS011;2808;51.240;6.794;2023-04-01T01:42:48;5.30;;;1.07;;
5569;SDS011;2808;51.240;6.794;2023-04-01T01:45:20;5.67;;;1.30;;
5569;SDS011;2808;51.240;6.794;2023-04-01T01:47:50;3.10;;;1.00;;
5569;SDS011;2808;51.240;6.794;2023-04-01T01:50:20;4.00;;;1.27;;
5569;SDS011;2808;51.240;6.794;2023-04-01T01:52:50;2.43;;;1.00;;
5569;SDS011;2808;51.240;6.794;2023-04-01T01:55:24;4.90;;;1.10;;
5569;SDS011;2808;51.240;6.794;2023-04-01T01:57:54;3.60;;;1.20;;
5569;SDS011;2808;51.240;6.794;2023-04-01T02:00:24;1.90;;;0.80;;
5569;SDS011;2808;51.240;6.794;2023-04-01T02:02:53;3.63;;;1.20;;
5569;SDS011;2808;51.240;6.794;2023-04-01T02:05:23;6.17;;;1.20;;
5569;SDS011;2808;51.240;6.794;2023-04-01T02:07:54;6.20;;;1.30;;
5569;SDS011;2808;51.240;6.794;2023-04-01T02:10:26;5.47;;;1.07;;
5569;SDS011;2808;51.240;6.794;2023-04-01T02:12:57;3.57;;;1.00;;
5569;SDS011;2808;51.240;6.794;2023-04-01T02:15:29;4.53;;;1.10;;
5569;SDS011;2808;51.240;6.794;2023-04-01T02:18:03;2.67;;;0.93;;
5569;SDS011;2808;51.240;6.794;2023-04-01T02:20:33;2.83;;;0.93;;
5569;SDS011;2808;51.240;6.794;2023-04-01T02:23:03;2.50;;;0.90;;
5569;SDS011;2808;51.240;6.794;2023-04-01T02:25:33;5.40;;;1.10;;
5569;SDS011;2808;51.240;6.794;2023-04-01T02:28:02;3.83;;;1.00;;
5569;SDS011;2808;51.240;6.794;2023-04-01T02:30:33;7.60;;;1.00;;
5569;SDS011;2808;51.240;6.794;2023-04-01T02:33:03;6.43;;;0.90;;
5569;SDS011;2808;51.240;6.794;2023-04-01T02:35:33;6.90;;;1.60;;
5569;SDS011;2808;51.240;6.794;2023-04-01T02:38:02;4.27;;;2.30;;
5569;SDS011;2808;51.240;6.794;2023-04-01T02:40:40;4.37;;;0.90;;
5569;SDS011;2808;51.240;6.794;2023-04-01T02:43:11;2.83;;;0.80;;
5569;SDS011;2808;51.240;6.794;2023-04-01T02:45:39;2.90;;;1.00;;
5569;SDS011;2808;51.240;6.794;2023-04-01T02:48:06;2.47;;;0.90;;
5569;SDS011;2808;51.240;6.794;2023-04-01T02:50:35;5.47;;;1.37;;
5569;SDS011;2808;51.240;6.794;2023-04-01T02:53:02;3.10;;;1.03;;
5569;SDS011;2808;51.240;6.794;2023-04-01T02:55:31;10.27;;;1.23;;
5569;SDS011;2808;51.240;6.794;2023-04-01T02:57:59;7.33;;;1.10;;
5569;SDS011;2808;51.240;6.794;2023-04-01T03:00:26;5.43;;;0.90;;
5569;SDS011;2808;51.240;6.794;2023-04-01T03:02:54;2.10;;;0.73;;
5569;SDS011;2808;51.240;6.794;2023-04-01T03:05:21;3.97;;;0.90;;
5569;SDS011;2808;51.240;6.794;2023-04-01T03:07:50;6.10;;;1.00;;
5569;SDS011;2808;51.240;6.794;2023-04-01T03:10:18;4.77;;;1.20;;
5569;SDS011;2808;51.240;6.794;2023-04-01T03:12:45;2.73;;;1.10;;
5569;SDS011;2808;51.240;6.794;2023-04-01T03:15:13;5.70;;;1.20;;
5569;SDS011;2808;51.240;6.794;2023-04-01T03:17:40;2.70;;;0.87;;
5569;SDS011;2808;51.240;6.794;2023-04-01T03:20:09;3.47;;;0.80;;
5569;SDS011;2808;51.240;6.794;2023-04-01T03:22:37;2.57;;;0.73;;
5569;SDS011;2808;51.240;6.794;2023-04-01T03:25:07;4.03;;;0.80;;
5569;SDS011;2808;51.240;6.794;2023-04-01T03:27:34;2.93;;;0.93;;
5569;SDS011;2808;51.240;6.794;2023-04-01T03:30:02;4.63;;;0.90;;
5569;SDS011;2808;51.240;6.794;2023-04-01T03:32:30;6.87;;;0.90;;
5569;SDS011;2808;51.240;6.794;2023-04-01T03:34:58;3.30;;;0.90;;
5569;SDS011;2808;51.240;6.794;2023-04-01T03:37:25;2.47;;;0.90;;
5569;SDS011;2808;51.240;6.794;2023-04-01T03:39:53;2.93;;;0.70;;
5569;SDS011;2808;51.240;6.794;2023-04-01T03:42:21;4.40;;;0.90;;
5569;SDS011;2808;51.240;6.794;2023-04-01T03:44:49;2.73;;;0.80;;
5569;SDS011;2808;51.240;6.794;2023-04-01T03:47:16;2.97;;;0.80;;
5569;SDS011;2808;51.240;6.794;2023-04-01T03:49:44;3.13;;;0.87;;
5569;SDS011;2808;51.240;6.794;2023-04-01T03:52:11;6.20;;;0.97;;
5569;SDS011;2808;51.240;6.794;2023-04-01T03:54:38;6.40;;;0.90;;
5569;SDS011;2808;51.240;6.794;2023-04-01T03:57:06;3.30;;;0.97;;
5569;SDS011;2808;51.240;6.794;2023-04-01T03:59:35;4.10;;;0.70;;
5569;SDS011;2808;51.240;6.794;2023-04-01T04:02:02;3.70;;;0.90;;
5569;SDS011;2808;51.240;6.794;2023-04-01T04:04:30;2.47;;;0.90;;
5569;SDS011;2808;51.240;6.794;2023-04-01T04:06:57;1.93;;;0.70;;
5569;SDS011;2808;51.240;6.794;2023-04-01T04:09:25;2.87;;;0.90;;
5569;SDS011;2808;51.240;6.794;2023-04-01T04:11:52;2.33;;;0.90;;
5569;SDS011;2808;51.240;6.794;2023-04-01T04:14:20;2.10;;;0.80;;
5569;SDS011;2808;51.240;6.794;2023-04-01T04:16:50;3.63;;;1.00;;
5569;SDS011;2808;51.240;6.794;2023-04-01T04:19:17;2.83;;;1.00;;
5569;SDS011;2808;51.240;6.794;2023-04-01T04:21:45;5.70;;;1.00;;
5569;SDS011;2808;51.240;6.794;2023-04-01T04:24:12;3.80;;;0.90;;
5569;SDS011;2808;51.240;6.794;2023-04-01T04:26:40;4.93;;;1.27;;
5569;SDS011;2808;51.240;6.794;2023-04-01T04:29:07;2.57;;;0.83;;
5569;SDS011;2808;51.240;6.794;2023-04-01T04:31:35;4.93;;;1.10;;
5569;SDS011;2808;51.240;6.794;2023-04-01T04:34:03;2.00;;;0.83;;
5569;SDS011;2808;51.240;6.794;2023-04-01T04:36:31;2.37;;;0.90;;
5569;SDS011;2808;51.240;6.794;2023-04-01T04:38:58;4.03;;;1.30;;
5569;SDS011;2808;51.240;6.794;2023-04-01T04:41:27;2.90;;;1.10;;
5569;SDS011;2808;51.240;6.794;2023-04-01T04:43:55;2.20;;;1.00;;
5569;SDS011;2808;51.240;6.794;2023-04-01T04:46:23;2.40;;;1.00;;
5569;SDS011;2808;51.240;6.794;2023-04-01T04:48:51;2.70;;;0.90;;
5569;SDS011;2808;51.240;6.794;2023-04-01T04:51:20;3.33;;;1.00;;
5569;SDS011;2808;51.240;6.794;2023-04-01T04:53:49;3.13;;;1.20;;
5569;SDS011;2808;51.240;6.794;2023-04-01T04:56:17;3.10;;;1.00;;
5569;SDS011;2808;51.240;6.794;2023-04-01T04:58:45;2.80;;;0.97;;
5569;SDS011;2808;51.240;6.794;2023-04-01T05:01:13;3.90;;;1.30;;
5569;SDS011;2808;51.240;6.794;2023-04-01T05:03:42;3.10;;;0.93;;
5569;SDS011;2808;51.240;6.794;2023-04-01T05:06:09;2.20;;;1.00;;
5569;SDS011;2808;51.240;6.794;2023-04-01T05:08:40;3.43;;;1.30;;
5569;SDS011;2808;51.240;6.794;2023-04-01T05:11:09;3.30;;;1.30;;
5569;SDS011;2808;51.240;6.794;2023-04-01T05:13:38;2.77;;;1.07;;
5569;SDS011;2808;51.240;6.794;2023-04-01T05:16:07;4.57;;;1.17;;
5569;SDS011;2808;51.240;6.794;2023-04-01T05:18:35;2.20;;;1.00;;
5569;SDS011;2808;51.240;6.794;2023-04-01T05:21:02;4.00;;;1.30;;
5569;SDS011;2808;51.240;6.794;2023-04-01T05:23:30;2.73;;;1.30;;
5569;SDS011;2808;51.240;6.794;2023-04-01T05:26:03;3.80;;;1.17;;
5569;SDS011;2808;51.240;6.794;2023-04-01T05:28:31;3.90;;;1.10;;
5569;SDS011;2808;51.240;6.794;2023-04-01T05:30:59;2.70;;;1.20;;
5569;SDS011;2808;51.240;6.794;2023-04-01T05:33:28;2.77;;;1.20;;
5569;SDS011;2808;51.240;6.794;2023-04-01T05:35:56;4.77;;;1.83;;
5569;SDS011;2808;51.240;6.794;2023-04-01T05:38:31;6.53;;;1.67;;
5569;SDS011;2808;51.240;6.794;2023-04-01T05:41:10;3.43;;;1.80;;
5569;SDS011;2808;51.240;6.794;2023-04-01T05:43:38;4.30;;;1.93;;
5569;SDS011;2808;51.240;6.794;2023-04-01T05:46:06;4.03;;;2.23;;
5569;SDS011;2808;51.240;6.794;2023-04-01T05:48:34;4.03;;;2.00;;
5569;SDS011;2808;51.240;6.794;2023-04-01T05:51:01;3.93;;;1.67;;
5569;SDS011;2808;51.240;6.794;2023-04-01T05:53:30;5.80;;;2.23;;
5569;SDS011;2808;51.240;6.794;2023-04-01T05:56:01;4.63;;;2.40;;
5569;SDS011;2808;51.240;6.794;2023-04-01T05:58:31;5.23;;;2.03;;
5569;SDS011;2808;51.240;6.794;2023-04-01T06:01:02;3.50;;;2.00;;
5569;SDS011;2808;51.240;6.794;2023-04-01T06:03:30;3.97;;;2.10;;
5569;SDS011;2808;51.240;6.794;2023-04-01T06:05:58;9.23;;;2.20;;
5569;SDS011;2808;51.240;6.794;2023-04-01T06:08:27;7.17;;;2.20;;
5569;SDS011;2808;51.240;6.794;2023-04-01T06:11:01;9.50;;;4.87;;
5569;SDS011;2808;51.240;6.794;2023-04-01T06:13:45;6.83;;;3.00;;
5569;SDS011;2808;51.240;6.794;2023-04-01T06:16:25;7.30;;;3.87;;
5569;SDS011;2808;51.240;6.794;2023-04-01T06:19:07;6.83;;;3.50;;
5569;SDS011;2808;51.240;6.794;2023-04-01T06:21:56;4.60;;;2.80;;
5569;SDS011;2808;51.240;6.794;2023-04-01T06:24:59;5.63;;;2.97;;
5569;SDS011;2808;51.240;6.794;2023-04-01T06:27:54;6.57;;;3.20;;
5569;SDS011;2808;51.240;6.794;2023-04-01T06:30:43;5.50;;;3.23;;
5569;SDS011;2808;51.240;6.794;2023-04-01T06:33:27;6.90;;;3.97;;
5569;SDS011;2808;51.240;6.794;2023-04-01T06:36:15;8.50;;;4.67;;
5569;SDS011;2808;51.240;6.794;2023-04-01T06:38:55;10.70;;;5.43;;
5569;SDS011;2808;51.240;6.794;2023-04-01T06:41:57;5.40;;;3.30;;
5569;SDS011;2808;51.240;6.794;2023-04-01T06:44:52;4.80;;;2.90;;
5569;SDS011;2808;51.240;6.794;2023-04-01T06:47:30;5.20;;;3.20;;
5569;SDS011;2808;51.240;6.794;2023-04-01T06:50:11;5.90;;;2.90;;
5569;SDS011;2808;51.240;6.794;2023-04-01T06:52:47;4.17;;;2.80;;
5569;SDS011;2808;51.240;6.794;2023-04-01T06:55:25;6.50;;;2.97;;
5569;SDS011;2808;51.240;6.794;2023-04-01T06:57:58;6.10;;;2.70;;
5569;SDS011;2808;51.240;6.794;2023-04-01T07:00:30;5.37;;;2.97;;
5569;SDS011;2808;51.240;6.794;2023-04-01T07:03:04;5.43;;;3.53;;
5569;SDS011;2808;51.240;6.794;2023-04-01T07:05:39;10.00;;;5.00;;
5569;SDS011;2808;51.240;6.794;2023-04-01T07:08:09;14.50;;;4.73;;
5569;SDS011;2808;51.240;6.794;2023-04-01T07:10:42;7.63;;;3.80;;
5569;SDS011;2808;51.240;6.794;2023-04-01T07:13:13;7.50;;;4.43;;
5569;SDS011;2808;51.240;6.794;2023-04-01T07:15:46;13.30;;;4.30;;
5569;SDS011;2808;51.240;6.794;2023-04-01T07:18:25;6.97;;;4.43;;
5569;SDS011;2808;51.240;6.794;2023-04-01T07:20:58;5.90;;;4.10;;
5569;SDS011;2808;51.240;6.794;2023-04-01T07:23:28;7.23;;;4.33;;
5569;SDS011;2808;51.240;6.794;2023-04-01T07:26:04;6.30;;;4.20;;
5569;SDS011;2808;51.240;6.794;2023-04-01T07:28:39;5.87;;;3.53;;
5569;SDS011;2808;51.240;6.794;2023-04-01T07:31:12;5.00;;;2.60;;
5569;SDS011;2808;51.240;6.794;2023-04-01T07:33:51;6.57;;;2.97;;
5569;SDS011;2808;51.240;6.794;2023-04-01T07:36:29;9.00;;;3.80;;
5569;SDS011;2808;51.240;6.794;2023-04-01T07:39:15;4.40;;;2.50;;
5569;SDS011;2808;51.240;6.794;2023-04-01T07:41:51;8.40;;;2.23;;
5569;SDS011;2808;51.240;6.794;2023-04-01T07:44:25;3.87;;;2.27;;
5569;SDS011;2808;51.240;6.794;2023-04-01T07:47:03;4.47;;;2.50;;
5569;SDS011;2808;51.240;6.794;2023-04-01T07:49:40;3.40;;;2.10;;
5569;SDS011;2808;51.240;6.794;2023-04-01T07:52:18;3.47;;;1.90;;
5569;SDS011;2808;51.240;6.794;2023-04-01T07:54:56;3.13;;;1.80;;
5569;SDS011;2808;51.240;6.794;2023-04-01T07:57:34;10.43;;;2.40;;
5569;SDS011;2808;51.240;6.794;2023-04-01T08:00:08;3.60;;;2.07;;
5569;SDS011;2808;51.240;6.794;2023-04-01T08:02:53;3.97;;;2.10;;
5569;SDS011;2808;51.240;6.794;2023-04-01T08:05:32;5.00;;;2.47;;
5569;SDS011;2808;51.240;6.794;2023-04-01T08:08:07;3.80;;;2.20;;
5569;SDS011;2808;51.240;6.794;2023-04-01T08:10:43;3.60;;;2.20;;
5569;SDS011;2808;51.240;6.794;2023-04-01T08:13:20;5.00;;;1.83;;
5569;SDS011;2808;51.240;6.794;2023-04-01T08:16:06;4.13;;;2.07;;
5569;SDS011;2808;51.240;6.794;2023-04-01T08:18:40;3.00;;;1.80;;
5569;SDS011;2808;51.240;6.794;2023-04-01T08:21:15;3.00;;;1.70;;
5569;SDS011;2808;51.240;6.794;2023-04-01T08:23:48;3.37;;;1.90;;
5569;SDS011;2808;51.240;6.794;2023-04-01T08:26:23;4.83;;;1.90;;
5569;SDS011;2808;51.240;6.794;2023-04-01T08:28:57;3.20;;;2.03;;
5569;SDS011;2808;51.240;6.794;2023-04-01T08:31:29;3.37;;;1.97;;
5569;SDS011;2808;51.240;6.794;2023-04-01T08:34:01;6.60;;;3.27;;
5569;SDS011;2808;51.240;6.794;2023-04-01T08:36:36;3.30;;;1.70;;
5569;SDS011;2808;51.240;6.794;2023-04-01T08:39:08;3.70;;;1.83;;
5569;SDS011;2808;51.240;6.794;2023-04-01T08:41:48;3.30;;;1.70;;
5569;SDS011;2808;51.240;6.794;2023-04-01T08:50:36;3.80;;;1.90;;
5569;SDS011;2808;51.240;6.794;2023-04-01T08:53:45;3.60;;;2.00;;
5569;SDS011;2808;51.240;6.794;2023-04-01T08:56:46;4.00;;;2.30;;
5569;SDS011;2808;51.240;6.794;2023-04-01T08:59:23;9.80;;;3.40;;
5569;SDS011;2808;51.240;6.794;2023-04-01T09:05:06;5.23;;;3.23;;
5569;SDS011;2808;51.240;6.794;2023-04-01T09:08:02;5.50;;;4.03;;
5569;SDS011;2808;51.240;6.794;2023-04-01T09:10:41;4.97;;;3.30;;
5569;SDS011;2808;51.240;6.794;2023-04-01T09:16:19;5.57;;;4.20;;
5569;SDS011;2808;51.240;6.794;2023-04-01T09:21:46;8.47;;;5.50;;
5569;SDS011;2808;51.240;6.794;2023-04-01T09:24:39;11.40;;;7.17;;
5569;SDS011;2808;51.240;6.794;2023-04-01T09:27:25;8.40;;;4.50;;
5569;SDS011;2808;51.240;6.794;2023-04-01T09:30:04;7.30;;;4.87;;
5569;SDS011;2808;51.240;6.794;2023-04-01T09:35:39;5.23;;;3.93;;
5569;SDS011;2808;51.240;6.794;2023-04-01T09:38:19;6.60;;;4.20;;
5569;SDS011;2808;51.240;6.794;2023-04-01T09:40:53;6.93;;;4.03;;
5569;SDS011;2808;51.240;6.794;2023-04-01T09:43:25;6.37;;;4.37;;
5569;SDS011;2808;51.240;6.794;2023-04-01T09:46:11;6.50;;;3.93;;
5569;SDS011;2808;51.240;6.794;2023-04-01T09:52:15;7.93;;;5.20;;
5569;SDS011;2808;51.240;6.794;2023-04-01T10:01:09;11.13;;;6.63;;
5569;SDS011;2808;51.240;6.794;2023-04-01T10:04:17;9.83;;;6.50;;
5569;SDS011;2808;51.240;6.794;2023-04-01T10:07:34;10.37;;;6.67;;
5569;SDS011;2808;51.240;6.794;2023-04-01T10:10:30;10.50;;;7.20;;
5569;SDS011;2808;51.240;6.794;2023-04-01T10:13:43;9.80;;;6.97;;
5569;SDS011;2808;51.240;6.794;2023-04-01T10:16:47;9.20;;;6.57;;
5569;SDS011;2808;51.240;6.794;2023-04-01T10:19:43;13.67;;;7.73;;
5569;SDS011;2808;51.240;6.794;2023-04-01T10:22:34;12.37;;;7.10;;
5569;SDS011;2808;51.240;6.794;2023-04-01T10:32:09;10.00;;;6.60;;
5569;SDS011;2808;51.240;6.794;2023-04-01T10:35:14;10.33;;;6.17;;
5569;SDS011;2808;51.240;6.794;2023-04-01T10:41:11;7.60;;;5.10;;
5569;SDS011;2808;51.240;6.794;2023-04-01T10:44:28;8.80;;;5.83;;
5569;SDS011;2808;51.240;6.794;2023-04-01T10:48:04;7.60;;;4.93;;
5569;SDS011;2808;51.240;6.794;2023-04-01T10:51:12;7.33;;;4.67;;
5569;SDS011;2808;51.240;6.794;2023-04-01T10:58:54;8.00;;;5.10;;
5569;SDS011;2808;51.240;6.794;2023-04-01T11:00:56;6.83;;;4.00;;
5569;SDS011;2808;51.240;6.794;2023-04-01T11:13:52;7.47;;;4.93;;
5569;SDS011;2808;51.240;6.794;2023-04-01T11:19:52;9.43;;;5.83;;
5569;SDS011;2808;51.240;6.794;2023-04-01T11:25:48;8.20;;;5.20;;
5569;SDS011;2808;51.240;6.794;2023-04-01T11:28:40;7.23;;;5.37;;
5569;SDS011;2808;51.240;6.794;2023-04-01T11:31:46;9.00;;;5.77;;
5569;SDS011;2808;51.240;6.794;2023-04-01T11:34:29;8.00;;;5.47;;
5569;SDS011;2808;51.240;6.794;2023-04-01T11:37:21;7.83;;;5.37;;
5569;SDS011;2808;51.240;6.794;2023-04-01T11:40:07;7.63;;;5.10;;
5569;SDS011;2808;51.240;6.794;2023-04-01T11:42:49;7.37;;;5.50;;
5569;SDS011;2808;51.240;6.794;2023-04-01T11:51:07;7.10;;;4.70;;
5569;SDS011;2808;51.240;6.794;2023-04-01T11:53:58;6.50;;;4.77;;
5569;SDS011;2808;51.240;6.794;2023-04-01T11:56:39;7.27;;;4.33;;
5569;SDS011;2808;51.240;6.794;2023-04-01T12:02:16;7.37;;;5.00;;
5569;SDS011;2808;51.240;6.794;2023-04-01T12:08:12;8.53;;;5.60;;
5569;SDS011;2808;51.240;6.794;2023-04-01T12:10:56;9.00;;;5.50;;
5569;SDS011;2808;51.240;6.794;2023-04-01T12:13:44;8.00;;;5.60;;
5569;SDS011;2808;51.240;6.794;2023-04-01T12:16:28;8.03;;;5.73;;
5569;SDS011;2808;51.240;6.794;2023-04-01T12:19:15;12.23;;;6.17;;
5569;SDS011;2808;51.240;6.794;2023-04-01T12:21:51;10.57;;;6.10;;
5569;SDS011;2808;51.240;6.794;2023-04-01T12:24:29;9.97;;;6.70;;
5569;SDS011;2808;51.240;6.794;2023-04-01T12:30:11;11.10;;;7.03;;
5569;SDS011;2808;51.240;6.794;2023-04-01T12:32:57;10.20;;;7.20;;
5569;SDS011;2808;51.240;6.794;2023-04-01T12:35:45;10.60;;;6.83;;
5569;SDS011;2808;51.240;6.794;2023-04-01T12:38:25;8.60;;;6.47;;
5569;SDS011;2808;51.240;6.794;2023-04-01T12:41:07;8.03;;;6.13;;
5569;SDS011;2808;51.240;6.794;2023-04-01T12:43:50;9.47;;;6.23;;
5569;SDS011;2808;51.240;6.794;2023-04-01T12:46:40;9.43;;;6.33;;
5569;SDS011;2808;51.240;6.794;2023-04-01T12:49:34;8.67;;;6.13;;
5569;SDS011;2808;51.240;6.794;2023-04-01T12:52:35;9.60;;;6.20;;
5569;SDS011;2808;51.240;6.794;2023-04-01T12:55:25;10.87;;;6.00;;
5569;SDS011;2808;51.240;6.794;2023-04-01T12:58:10;8.40;;;5.63;;
5569;SDS011;2808;51.240;6.794;2023-04-01T13:01:00;8.47;;;6.47;;
5569;SDS011;2808;51.240;6.794;2023-04-01T13:06:51;9.03;;;5.87;;
5569;SDS011;2808;51.240;6.794;2023-04-01T13:09:45;13.07;;;6.30;;
5569;SDS011;2808;51.240;6.794;2023-04-01T13:12:27;9.10;;;5.33;;
5569;SDS011;2808;51.240;6.794;2023-04-01T13:15:11;8.47;;;5.40;;
5569;SDS011;2808;51.240;6.794;2023-04-01T13:17:50;6.83;;;5.10;;
5569;SDS011;2808;51.240;6.794;2023-04-01T13:20:26;6.03;;;4.40;;
5569;SDS011;2808;51.240;6.794;2023-04-01T13:23:08;6.10;;;4.80;;
5569;SDS011;2808;51.240;6.794;2023-04-01T13:25:47;6.63;;;4.70;;
5569;SDS011;2808;51.240;6.794;2023-04-01T13:28:23;5.50;;;3.77;;
5569;SDS011;2808;51.240;6.794;2023-04-01T13:30:55;7.23;;;5.10;;
5569;SDS011;2808;51.240;6.794;2023-04-01T13:33:30;6.07;;;4.10;;
5569;SDS011;2808;51.240;6.794;2023-04-01T13:36:10;6.00;;;4.30;;
5569;SDS011;2808;51.240;6.794;2023-04-01T13:38:50;5.20;;;3.40;;
5569;SDS011;2808;51.240;6.794;2023-04-01T13:41:31;8.20;;;3.90;;
5569;SDS011;2808;51.240;6.794;2023-04-01T13:44:11;5.73;;;3.53;;
5569;SDS011;2808;51.240;6.794;2023-04-01T13:47:00;5.93;;;3.90;;
5569;SDS011;2808;51.240;6.794;2023-04-01T13:49:47;5.53;;;3.77;;
5569;SDS011;2808;51.240;6.794;2023-04-01T13:55:49;5.93;;;3.70;;
5569;SDS011;2808;51.240;6.794;2023-04-01T14:01:35;5.13;;;3.80;;
5569;SDS011;2808;51.240;6.794;2023-04-01T14:04:20;6.20;;;4.03;;
5569;SDS011;2808;51.240;6.794;2023-04-01T14:07:31;6.00;;;3.43;;
5569;SDS011;2808;51.240;6.794;2023-04-01T14:10:13;6.53;;;3.97;;
5569;SDS011;2808;51.240;6.794;2023-04-01T14:12:50;5.90;;;3.70;;
5569;SDS011;2808;51.240;6.794;2023-04-01T14:15:30;4.90;;;3.30;;
5569;SDS011;2808;51.240;6.794;2023-04-01T14:18:13;4.47;;;3.07;;
5569;SDS011;2808;51.240;6.794;2023-04-01T14:21:03;4.40;;;3.07;;
5569;SDS011;2808;51.240;6.794;2023-04-01T14:29:50;4.83;;;3.10;;
5569;SDS011;2808;51.240;6.794;2023-04-01T14:32:27;4.33;;;3.20;;
5569;SDS011;2808;51.240;6.794;2023-04-01T14:35:09;5.97;;;3.70;;
5569;SDS011;2808;51.240;6.794;2023-04-01T14:40:52;4.20;;;2.43;;
5569;SDS011;2808;51.240;6.794;2023-04-01T14:43:28;4.17;;;2.57;;
5569;SDS011;2808;51.240;6.794;2023-04-01T14:46:32;4.07;;;2.53;;
5569;SDS011;2808;51.240;6.794;2023-04-01T14:49:24;4.97;;;2.50;;
5569;SDS011;2808;51.240;6.794;2023-04-01T14:52:04;4.00;;;2.50;;
5569;SDS011;2808;51.240;6.794;2023-04-01T14:54:41;3.67;;;2.20;;
5569;SDS011;2808;51.240;6.794;2023-04-01T14:57:14;6.00;;;2.53;;
5569;SDS011;2808;51.240;6.794;2023-04-01T14:59:50;8.37;;;3.00;;
5569;SDS011;2808;51.240;6.794;2023-04-01T15:02:33;8.40;;;3.23;;
5569;SDS011;2808;51.240;6.794;2023-04-01T15:05:13;8.83;;;2.70;;
5569;SDS011;2808;51.240;6.794;2023-04-01T15:07:59;4.40;;;2.63;;
5569;SDS011;2808;51.240;6.794;2023-04-01T15:13:34;7.57;;;3.53;;
5569;SDS011;2808;51.240;6.794;2023-04-01T15:16:22;6.43;;;3.37;;
5569;SDS011;2808;51.240;6.794;2023-04-01T15:18:56;8.30;;;4.10;;
5569;SDS011;2808;51.240;6.794;2023-04-01T15:25:00;8.70;;;4.07;;
5569;SDS011;2808;51.240;6.794;2023-04-01T15:27:58;10.00;;;3.60;;
5569;SDS011;2808;51.240;6.794;2023-04-01T15:30:32;7.00;;;3.30;;
5569;SDS011;2808;51.240;6.794;2023-04-01T15:33:24;5.70;;;3.10;;
5569;SDS011;2808;51.240;6.794;2023-04-01T15:36:07;5.33;;;3.07;;
5569;SDS011;2808;51.240;6.794;2023-04-01T15:38:44;5.87;;;3.23;;
5569;SDS011;2808;51.240;6.794;2023-04-01T15:41:19;6.40;;;4.13;;
5569;SDS011;2808;51.240;6.794;2023-04-01T15:43:55;10.60;;;5.90;;
5569;SDS011;2808;51.240;6.794;2023-04-01T15:49:23;6.70;;;4.20;;
5569;SDS011;2808;51.240;6.794;2023-04-01T15:52:05;7.10;;;3.90;;
5569;SDS011;2808;51.240;6.794;2023-04-01T15:57:49;5.03;;;3.30;;
5569;SDS011;2808;51.240;6.794;2023-04-01T16:00:24;6.27;;;4.20;;
5569;SDS011;2808;51.240;6.794;2023-04-01T16:03:09;6.63;;;4.27;;
5569;SDS011;2808;51.240;6.794;2023-04-01T16:05:52;6.13;;;4.07;;
5569;SDS011;2808;51.240;6.794;2023-04-01T16:08:53;6.17;;;4.40;;
5569;SDS011;2808;51.240;6.794;2023-04-01T16:11:34;6.67;;;4.80;;
5569;SDS011;2808;51.240;6.794;2023-04-01T16:14:12;8.00;;;5.27;;
5569;SDS011;2808;51.240;6.794;2023-04-01T16:16:53;7.27;;;4.83;;
5569;SDS011;2808;51.240;6.794;2023-04-01T16:19:37;9.00;;;5.90;;
5569;SDS011;2808;51.240;6.794;2023-04-01T16:22:16;7.73;;;5.13;;
5569;SDS011;2808;51.240;6.794;2023-04-01T16:24:53;9.90;;;5.20;;
5569;SDS011;2808;51.240;6.794;2023-04-01T16:27:27;12.43;;;5.87;;
5569;SDS011;2808;51.240;6.794;2023-04-01T16:30:03;6.33;;;4.70;;
5569;SDS011;2808;51.240;6.794;2023-04-01T16:32:53;11.60;;;5.90;;
5569;SDS011;2808;51.240;6.794;2023-04-01T16:35:31;6.97;;;4.90;;
5569;SDS011;2808;51.240;6.794;2023-04-01T16:38:09;6.67;;;4.60;;
5569;SDS011;2808;51.240;6.794;2023-04-01T16:40:47;9.40;;;5.53;;
5569;SDS011;2808;51.240;6.794;2023-04-01T16:43:25;10.47;;;5.53;;
5569;SDS011;2808;51.240;6.794;2023-04-01T16:46:13;7.37;;;4.50;;
5569;SDS011;2808;51.240;6.794;2023-04-01T16:52:13;8.77;;;5.00;;
5569;SDS011;2808;51.240;6.794;2023-04-01T16:54:44;10.70;;;4.87;;
5569;SDS011;2808;51.240;6.794;2023-04-01T16:57:25;11.03;;;4.50;;
5569;SDS011;2808;51.240;6.794;2023-04-01T16:59:58;7.80;;;4.50;;
5569;SDS011;2808;51.240;6.794;2023-04-01T17:02:43;8.87;;;5.33;;
5569;SDS011;2808;51.240;6.794;2023-04-01T17:05:15;10.73;;;5.37;;
5569;SDS011;2808;51.240;6.794;2023-04-01T17:07:46;7.43;;;4.70;;
5569;SDS011;2808;51.240;6.794;2023-04-01T17:10:31;9.27;;;5.20;;
5569;SDS011;2808;51.240;6.794;2023-04-01T17:13:16;8.00;;;4.50;;
5569;SDS011;2808;51.240;6.794;2023-04-01T17:18:56;10.83;;;5.70;;
5569;SDS011;2808;51.240;6.794;2023-04-01T17:21:38;8.30;;;5.20;;
5569;SDS011;2808;51.240;6.794;2023-04-01T17:24:22;7.30;;;5.03;;
5569;SDS011;2808;51.240;6.794;2023-04-01T17:27:01;7.20;;;4.30;;
5569;SDS011;2808;51.240;6.794;2023-04-01T17:29:44;8.33;;;4.67;;
5569;SDS011;2808;51.240;6.794;2023-04-01T17:32:28;7.00;;;4.47;;
5569;SDS011;2808;51.240;6.794;2023-04-01T17:35:08;9.53;;;4.50;;
5569;SDS011;2808;51.240;6.794;2023-04-01T17:37:45;6.30;;;4.20;;
5569;SDS011;2808;51.240;6.794;2023-04-01T17:40:31;7.57;;;4.50;;
5569;SDS011;2808;51.240;6.794;2023-04-01T17:43:10;6.37;;;3.87;;
5569;SDS011;2808;51.240;6.794;2023-04-01T17:45:48;6.77;;;4.43;;
5569;SDS011;2808;51.240;6.794;2023-04-01T17:48:23;5.20;;;3.57;;
5569;SDS011;2808;51.240;6.794;2023-04-01T17:51:07;6.50;;;4.30;;
5569;SDS011;2808;51.240;6.794;2023-04-01T17:53:46;10.23;;;4.10;;
5569;SDS011;2808;51.240;6.794;2023-04-01T17:56:20;7.47;;;4.30;;
5569;SDS011;2808;51.240;6.794;2023-04-01T17:59:06;8.03;;;4.17;;
5569;SDS011;2808;51.240;6.794;2023-04-01T18:01:45;7.07;;;4.10;;
5569;SDS011;2808;51.240;6.794;2023-04-01T18:04:29;5.53;;;3.67;;
5569;SDS011;2808;51.240;6.794;2023-04-01T18:07:38;6.33;;;3.97;;
5569;SDS011;2808;51.240;6.794;2023-04-01T18:10:25;8.10;;;4.00;;
5569;SDS011;2808;51.240;6.794;2023-04-01T18:13:05;5.50;;;3.87;;
5569;SDS011;2808;51.240;6.794;2023-04-01T18:15:44;8.43;;;4.67;;